Etusivu
METAR-TAF:

METAR-TAF

Lentoasemat :

Banjulin kansainvälinen lentoasema

Banjul, Gambia

Leveyspiiri: 13-21N, Pituuspiiri: 016-48W, korkeus merenpinnasta: 36 m

Tämänhetkinen sää

Tämä raportti tehtiin 1 tunti ja 1 minuuttia sitten, kello 16.00 UTC
Tuuli 5 kn lännestä/luoteesta
Lämpötila 33°C
Kosteus 63%
Ilmanpaine 1010 hPa
Näkyvyys 10 km tai enemmän
Hajonneita pilviä 1300 ft:n korkeudessa
Muutamia pilviä 1900 ft:n korkeudessa, Cumulonimbus.

METAR: GBYD 021600Z 29005KT 9999 BKN013 FEW019CB 33/25 Q1010 CB(NE-SE)

Aika: 17:01 (17:01 UTC)

Sääennuste

Tämä raportti tehtiin 5 tuntia ja 36 minuuttia sitten, kello 11.25 UTC
Ennuste voimassa 02. päivästä klo 12 UTC - 03. päivään klo 18 UTC
Tuuli 8 kn lännestä
Näkyvyys 10 km tai enemmän
Hajanaisia pilviä 1200 ft:n korkeudessa

TAF: GBYD 021125Z 0212/0318 28008KT 9999 SCT012

Säähavainnot ja -ennusteet yli 4000 lentoasemalta (METAR- ja TAF-raportit).

Käytössä olevat sääasemat on merkitty karttaan keltaisilla ja punaisilla pisteillä.

Aseta hiiri pisteen päälle nähdäksesi sääaseman nimen.

Klikkaa sitten nähdäksesi säähavainnot ja -ennusteet.

Kartan vaihtaminen: klikkaa mustalla rastilla varustettuja vihreitä pisteitä, niin voit zoomata sisään; viivalla varustettua vihreää pistettä, niin voit zoomata ulos tai vihreitä nuolia, niin pääset viereisille kartoille.


METAR-TAF: